Time;durP1;ratioP1;P1;durP2;ratioP2;P2;SDS_P1;SDS_P2;PMS_P1;PMS_P2;Temp;Humidity;BMP_temperature;BMP_pressure;BME280_temperature;BME280_humidity;BME280_pressure;Samples;Min_cycle;Max_cycle;Signal;HPM_P1;HPM_P2
2022/03/24 00:00:32;;;;;;;41.73;17.20;;;10.60;42.80;;;;;;5011624;28;20736;-48
2022/03/24 00:02:59;;;;;;;30.27;14.60;;;10.60;42.80;;;;;;5019363;28;20200;-47
2022/03/24 00:05:27;;;;;;;29.57;12.77;;;10.70;42.80;;;;;;5028425;28;20223;-53
2022/03/24 00:07:55;;;;;;;29.97;13.93;;;10.60;42.70;;;;;;5014216;28;20196;-50
2022/03/24 00:10:24;;;;;;;31.07;13.20;;;10.60;42.70;;;;;;5028467;28;20188;-50
2022/03/24 00:12:51;;;;;;;29.57;13.13;;;10.60;42.80;;;;;;5016245;28;20654;-51
2022/03/24 00:15:19;;;;;;;31.30;13.50;;;10.60;42.80;;;;;;5025463;28;20211;-48
2022/03/24 00:17:46;;;;;;;34.60;13.90;;;10.60;42.80;;;;;;5024660;28;20205;-48
2022/03/24 00:20:14;;;;;;;34.83;15.13;;;10.60;42.80;;;;;;5020832;28;20570;-50
2022/03/24 00:22:41;;;;;;;35.73;15.60;;;10.50;42.80;;;;;;5022340;28;20202;-54
2022/03/24 00:25:10;;;;;;;32.67;14.57;;;10.50;42.80;;;;;;5018467;28;20725;-50
2022/03/24 00:27:39;;;;;;;36.93;16.43;;;10.50;42.90;;;;;;5022111;28;20586;-48
2022/03/24 00:30:08;;;;;;;39.60;16.53;;;10.40;42.90;;;;;;5014070;28;20199;-51
2022/03/24 00:32:35;;;;;;;35.63;14.60;;;10.40;43.00;;;;;;5021294;28;20190;-49
2022/03/24 00:35:03;;;;;;;34.90;15.40;;;10.40;43.00;;;;;;5012289;28;20248;-48
2022/03/24 00:37:31;;;;;;;42.67;16.90;;;10.30;43.00;;;;;;5023476;28;20598;-46
2022/03/24 00:40:00;;;;;;;46.23;17.73;;;10.30;43.10;;;;;;5013788;28;20207;-47
2022/03/24 00:42:28;;;;;;;42.30;18.00;;;10.30;43.10;;;;;;4997544;28;20231;-50
2022/03/24 00:44:57;;;;;;;37.47;15.53;;;10.20;43.10;;;;;;5004340;28;20193;-48
2022/03/24 00:47:25;;;;;;;31.23;14.47;;;10.20;43.10;;;;;;5016294;28;20272;-46
2022/03/24 00:49:52;;;;;;;29.37;13.67;;;10.10;43.00;;;;;;5021091;28;20207;-47
2022/03/24 00:52:19;;;;;;;33.17;14.60;;;10.10;43.10;;;;;;5016224;28;20263;-47
2022/03/24 00:54:47;;;;;;;35.50;15.40;;;10.10;43.10;;;;;;5028386;28;20212;-46
2022/03/24 00:57:17;;;;;;;55.43;21.63;;;10.10;43.20;;;;;;5029545;28;20256;-45
2022/03/24 00:59:44;;;;;;;59.83;25.17;;;10.10;43.30;;;;;;5015093;28;20231;-48
2022/03/24 01:02:12;;;;;;;51.20;21.67;;;10.10;43.30;;;;;;5022094;28;20200;-49
2022/03/24 01:04:40;;;;;;;49.20;20.93;;;10.20;43.40;;;;;;5023519;28;20285;-50
2022/03/24 01:07:08;;;;;;;51.43;21.60;;;10.10;43.30;;;;;;4993402;28;20235;-50
2022/03/24 01:09:35;;;;;;;56.03;22.70;;;10.10;43.30;;;;;;5006758;28;20282;-46
2022/03/24 01:12:03;;;;;;;48.77;20.47;;;10.10;43.40;;;;;;5001199;28;20195;-46
2022/03/24 01:14:35;;;;;;;48.47;20.97;;;10.00;43.40;;;;;;4989832;28;20203;-47
2022/03/24 01:17:04;;;;;;;51.23;21.40;;;10.00;43.40;;;;;;5008381;28;20226;-50
2022/03/24 01:19:33;;;;;;;47.57;19.73;;;10.00;43.50;;;;;;5005528;28;20206;-47
2022/03/24 01:22:01;;;;;;;47.50;19.50;;;9.90;44.40;;;;;;5004761;28;20712;-47
2022/03/24 01:24:29;;;;;;;44.40;18.67;;;9.90;44.40;;;;;;5007630;28;20264;-52
2022/03/24 01:26:56;;;;;;;49.27;19.67;;;9.90;44.30;;;;;;5007541;28;20202;-46
2022/03/24 01:29:23;;;;;;;49.87;20.50;;;9.90;44.30;;;;;;5009664;28;20305;-45
2022/03/24 01:31:51;;;;;;;64.47;26.63;;;9.90;44.30;;;;;;5007188;28;20195;-44
2022/03/24 01:34:19;;;;;;;58.13;23.53;;;9.90;44.40;;;;;;5008566;28;20191;-44
2022/03/24 01:36:47;;;;;;;47.73;19.20;;;9.90;44.40;;;;;;5006577;28;20260;-45
2022/03/24 01:39:15;;;;;;;47.33;20.23;;;9.90;44.30;;;;;;5012877;28;20226;-44
2022/03/24 01:41:42;;;;;;;55.37;22.03;;;9.90;44.20;;;;;;5012130;28;20219;-45
2022/03/24 01:44:13;;;;;;;57.30;21.70;;;9.80;44.20;;;;;;5013259;28;20698;-46
2022/03/24 01:46:56;;;;;;;52.73;21.60;;;9.80;44.20;;;;;;5012098;28;20620;-45
2022/03/24 01:49:25;;;;;;;52.03;21.27;;;9.80;44.30;;;;;;4995067;28;20265;-45
2022/03/24 01:51:54;;;;;;;48.17;19.47;;;9.70;44.20;;;;;;5012260;28;20188;-43
2022/03/24 01:54:22;;;;;;;46.27;17.70;;;9.80;44.30;;;;;;5011624;28;20206;-47
2022/03/24 01:56:53;;;;;;;41.70;17.90;;;9.80;44.20;;;;;;5011025;28;20209;-47
2022/03/24 01:59:21;;;;;;;45.53;17.80;;;9.80;44.20;;;;;;4995393;28;20290;-48
2022/03/24 02:01:49;;;;;;;42.73;17.80;;;9.80;44.20;;;;;;5007303;28;20215;-52
2022/03/24 02:04:19;;;;;;;43.63;17.70;;;9.80;44.20;;;;;;4983323;28;20207;-45
2022/03/24 02:06:48;;;;;;;48.70;19.23;;;9.80;44.30;;;;;;5006777;28;20223;-46
2022/03/24 02:09:17;;;;;;;45.50;18.47;;;9.80;44.40;;;;;;5004087;28;20739;-44
2022/03/24 02:11:44;;;;;;;44.60;17.87;;;9.70;44.30;;;;;;4988800;28;20201;-45
2022/03/24 02:14:11;;;;;;;41.03;17.03;;;9.70;44.40;;;;;;5008386;28;20684;-44
2022/03/24 02:16:40;;;;;;;38.60;16.53;;;9.70;44.40;;;;;;4992526;28;20248;-49
2022/03/24 02:19:12;;;;;;;52.73;18.63;;;9.60;44.30;;;;;;4989512;28;20259;-48
2022/03/24 02:21:39;;;;;;;35.77;15.00;;;9.60;44.30;;;;;;5010320;28;20215;-48
2022/03/24 02:24:09;;;;;;;30.83;13.97;;;9.60;44.20;;;;;;5011835;28;20299;-46
2022/03/24 02:26:37;;;;;;;34.23;14.30;;;9.60;44.20;;;;;;5011685;28;20348;-47
2022/03/24 02:29:06;;;;;;;43.90;17.13;;;9.60;44.20;;;;;;5006466;28;20726;-48
2022/03/24 02:31:36;;;;;;;36.40;15.63;;;9.60;44.10;;;;;;5008442;28;20191;-44
2022/03/24 02:36:49;;;;;;;27.53;12.93;;;9.70;43.90;;;;;;5009523;28;20195;-49
2022/03/24 02:39:18;;;;;;;26.77;12.53;;;9.70;43.80;;;;;;5011482;28;20200;-48
2022/03/24 02:41:47;;;;;;;28.27;11.53;;;9.70;43.80;;;;;;5011480;28;20200;-54
2022/03/24 02:44:17;;;;;;;27.20;11.43;;;9.70;43.80;;;;;;5011958;28;20259;-49
2022/03/24 02:46:46;;;;;;;23.97;10.77;;;9.70;43.80;;;;;;5010922;28;20218;-46
2022/03/24 02:49:13;;;;;;;35.13;13.90;;;9.70;43.80;;;;;;5011665;28;20210;-47
2022/03/24 02:51:40;;;;;;;33.60;12.67;;;9.70;44.00;;;;;;5011352;28;20677;-53
2022/03/24 02:54:08;;;;;;;20.33;10.03;;;9.70;44.00;;;;;;5011566;28;20210;-54
2022/03/24 02:56:38;;;;;;;26.37;11.70;;;9.70;44.00;;;;;;5011459;28;20199;-48
2022/03/24 02:59:06;;;;;;;43.07;17.77;;;9.70;44.10;;;;;;5011888;28;20192;-55
2022/03/24 03:01:34;;;;;;;36.93;15.30;;;9.60;44.10;;;;;;5009767;28;20582;-48
2022/03/24 03:04:01;;;;;;;46.43;17.27;;;9.60;44.20;;;;;;5003672;28;20224;-51
2022/03/24 03:06:29;;;;;;;44.87;17.37;;;9.50;44.20;;;;;;5007424;28;20322;-50
2022/03/24 03:08:56;;;;;;;35.57;14.30;;;9.50;44.30;;;;;;5009207;28;20230;-51
2022/03/24 03:11:23;;;;;;;43.30;16.93;;;9.40;44.20;;;;;;5010728;28;20281;-48
2022/03/24 03:13:53;;;;;;;37.93;14.80;;;9.40;44.30;;;;;;5011784;28;20208;-46
2022/03/24 03:16:20;;;;;;;43.70;17.43;;;9.40;44.30;;;;;;5008406;28;20191;-52
2022/03/24 03:18:47;;;;;;;34.37;14.50;;;9.40;44.30;;;;;;5004958;28;20675;-45
2022/03/24 03:21:16;;;;;;;31.77;12.43;;;9.40;44.20;;;;;;5011204;28;20713;-52
2022/03/24 03:23:44;;;;;;;32.43;11.90;;;9.40;44.20;;;;;;5005636;28;20196;-48
2022/03/24 03:26:12;;;;;;;30.73;13.30;;;9.50;44.30;;;;;;5011124;28;20218;-49
2022/03/24 03:28:41;;;;;;;26.53;11.20;;;9.50;44.20;;;;;;5010968;28;20203;-51
2022/03/24 03:31:10;;;;;;;24.93;10.97;;;9.50;44.20;;;;;;5006436;28;20282;-46
2022/03/24 03:33:37;;;;;;;22.93;10.67;;;9.50;44.20;;;;;;5010640;28;20190;-46
2022/03/24 03:36:05;;;;;;;19.37;8.90;;;9.60;44.20;;;;;;5005041;28;20691;-47
2022/03/24 03:38:33;;;;;;;22.67;9.63;;;9.60;44.20;;;;;;5010073;28;20204;-48
2022/03/24 03:41:02;;;;;;;21.87;9.33;;;9.60;44.30;;;;;;5010577;28;20208;-47
2022/03/24 03:43:29;;;;;;;21.97;8.80;;;9.50;44.30;;;;;;5010603;28;20247;-48
2022/03/24 03:45:56;;;;;;;23.57;10.20;;;9.50;44.40;;;;;;4992863;28;20257;-48
2022/03/24 03:48:25;;;;;;;24.47;10.23;;;9.40;44.40;;;;;;5009785;28;20199;-47
2022/03/24 03:50:52;;;;;;;24.93;9.73;;;9.40;44.50;;;;;;5011247;28;20204;-51
2022/03/24 03:53:19;;;;;;;20.43;9.03;;;9.40;44.40;;;;;;5009586;28;20207;-48
2022/03/24 03:55:46;;;;;;;21.57;9.83;;;9.40;44.50;;;;;;5010569;28;20192;-50
2022/03/24 03:58:13;;;;;;;23.30;10.30;;;9.40;44.50;;;;;;5008690;28;20199;-46
2022/03/24 04:00:59;;;;;;;20.47;9.63;;;9.40;44.50;;;;;;5009942;28;20198;-45
2022/03/24 04:03:29;;;;;;;25.63;10.83;;;9.40;44.50;;;;;;5001272;28;20681;-47
2022/03/24 04:05:59;;;;;;;20.10;9.63;;;9.40;44.60;;;;;;5010013;28;20253;-50
2022/03/24 04:08:27;;;;;;;24.97;11.30;;;9.40;44.60;;;;;;5009771;28;20295;-54
2022/03/24 04:10:55;;;;;;;35.83;13.07;;;9.30;44.60;;;;;;5004624;28;20605;-47
2022/03/24 04:13:22;;;;;;;30.63;13.03;;;9.30;44.70;;;;;;5004595;28;20277;-50
2022/03/24 04:15:51;;;;;;;29.63;11.60;;;9.90;45.30;;;;;;5008523;28;20295;-48
2022/03/24 04:18:19;;;;;;;34.67;12.77;;;9.30;44.80;;;;;;5008248;28;20611;-49
2022/03/24 04:20:47;;;;;;;25.63;11.40;;;9.20;44.80;;;;;;5005097;28;20199;-44
2022/03/24 04:23:14;;;;;;;27.93;11.30;;;9.20;44.90;;;;;;5005965;28;20187;-45
2022/03/24 04:25:42;;;;;;;32.23;11.97;;;9.20;45.00;;;;;;5008763;28;20200;-45
2022/03/24 04:28:09;;;;;;;32.70;13.27;;;9.10;45.00;;;;;;5010078;28;20202;-47
2022/03/24 04:30:36;;;;;;;33.73;14.07;;;9.00;44.90;;;;;;4990153;28;20208;-46
2022/03/24 04:33:05;;;;;;;33.83;14.00;;;9.00;45.00;;;;;;5003888;28;20274;-47
2022/03/24 04:35:33;;;;;;;34.67;13.03;;;9.00;45.00;;;;;;5008393;28;20214;-48
2022/03/24 04:38:02;;;;;;;30.70;12.90;;;9.00;45.00;;;;;;5008873;28;20206;-47
2022/03/24 04:40:29;;;;;;;30.03;12.90;;;8.90;45.00;;;;;;5009701;28;20992;-48
2022/03/24 04:42:56;;;;;;;24.37;11.47;;;8.90;45.10;;;;;;5009596;28;20219;-47
2022/03/24 04:45:26;;;;;;;32.57;12.40;;;8.90;45.10;;;;;;5009208;28;20207;-46
2022/03/24 04:47:54;;;;;;;41.50;15.13;;;8.80;45.00;;;;;;5003425;28;20222;-50
2022/03/24 04:50:21;;;;;;;42.40;15.97;;;8.80;45.10;;;;;;5009886;28;20196;-47
2022/03/24 04:52:49;;;;;;;32.50;13.10;;;8.80;45.10;;;;;;5009299;28;20200;-44
2022/03/24 04:55:18;;;;;;;34.90;12.63;;;8.80;45.10;;;;;;5009157;28;20195;-48
2022/03/24 04:57:45;;;;;;;26.77;10.67;;;8.90;45.20;;;;;;5009613;28;20195;-48
2022/03/24 05:00:15;;;;;;;28.83;11.33;;;8.90;45.10;;;;;;5008504;28;20203;-49
2022/03/24 05:02:43;;;;;;;29.13;11.40;;;8.90;45.10;;;;;;5007581;28;20749;-44
2022/03/24 05:05:11;;;;;;;20.57;9.73;;;9.00;45.00;;;;;;5009139;28;20306;-47
2022/03/24 05:07:39;;;;;;;22.90;9.87;;;9.00;44.80;;;;;;5008786;28;20292;-46
2022/03/24 05:10:07;;;;;;;23.53;10.70;;;9.10;44.70;;;;;;5010375;28;20201;-48
2022/03/24 05:12:39;;;;;;;25.77;10.53;;;9.20;44.60;;;;;;5012451;28;20214;-48
2022/03/24 05:15:09;;;;;;;22.90;10.33;;;9.30;44.50;;;;;;5011703;28;20198;-50
2022/03/24 05:17:37;;;;;;;24.37;9.83;;;9.30;44.30;;;;;;5012442;28;20222;-48
2022/03/24 05:20:05;;;;;;;24.97;9.33;;;9.40;44.20;;;;;;5013471;28;20535;-45
2022/03/24 05:22:32;;;;;;;22.90;10.57;;;9.50;44.20;;;;;;5010628;28;20212;-49
2022/03/24 05:24:59;;;;;;;15.03;7.67;;;9.50;44.00;;;;;;5013691;28;20233;-48
2022/03/24 05:27:26;;;;;;;19.77;8.47;;;9.50;43.90;;;;;;5012680;28;20625;-48
2022/03/24 05:29:55;;;;;;;17.43;8.17;;;9.60;43.80;;;;;;5012849;28;20199;-47
2022/03/24 05:32:22;;;;;;;14.97;6.90;;;9.60;43.70;;;;;;5012394;28;20195;-47
2022/03/24 05:34:49;;;;;;;13.03;6.43;;;9.70;43.60;;;;;;4995031;28;20226;-49
2022/03/24 05:37:17;;;;;;;11.67;5.93;;;9.80;43.50;;;;;;5008689;28;20652;-45
2022/03/24 05:39:44;;;;;;;11.27;6.30;;;9.80;43.40;;;;;;5012903;28;20198;-44
2022/03/24 05:42:11;;;;;;;13.53;7.07;;;9.90;43.30;;;;;;5012392;28;20219;-47
2022/03/24 05:44:38;;;;;;;12.43;6.77;;;9.90;43.20;;;;;;5012848;28;20214;-44
2022/03/24 05:47:08;;;;;;;12.40;7.73;;;10.00;42.20;;;;;;5011651;28;20199;-44
2022/03/24 05:49:35;;;;;;;14.53;7.60;;;10.00;42.10;;;;;;5012867;28;20289;-50
2022/03/24 05:52:25;;;;;;;15.47;7.37;;;10.10;42.00;;;;;;4990151;28;20204;-45
2022/03/24 05:54:52;;;;;;;13.67;7.27;;;10.20;42.00;;;;;;5012266;28;20239;-44
2022/03/24 05:57:19;;;;;;;14.37;7.40;;;10.30;41.90;;;;;;5011024;28;20621;-44
2022/03/24 05:59:48;;;;;;;10.43;6.47;;;10.30;41.80;;;;;;5011823;28;20637;-45
2022/03/24 06:02:17;;;;;;;10.33;5.77;;;10.40;41.80;;;;;;5008580;28;20269;-48
2022/03/24 06:04:44;;;;;;;11.73;6.80;;;10.50;41.80;;;;;;5009234;28;20191;-45
2022/03/24 06:07:11;;;;;;;13.90;7.47;;;10.60;41.70;;;;;;5011390;28;20242;-44
2022/03/24 06:09:39;;;;;;;11.27;6.60;;;10.60;41.60;;;;;;5006862;28;20200;-45
2022/03/24 06:12:09;;;;;;;12.30;6.80;;;10.70;41.60;;;;;;5012391;28;20197;-55
2022/03/24 06:14:37;;;;;;;11.23;6.13;;;10.70;41.60;;;;;;5008942;28;20187;-49
2022/03/24 06:17:05;;;;;;;10.63;6.47;;;10.80;41.50;;;;;;4984491;28;20203;-44
2022/03/24 06:19:35;;;;;;;15.80;8.23;;;10.90;41.40;;;;;;5008847;28;20195;-43
2022/03/24 06:22:02;;;;;;;10.67;6.60;;;11.00;41.30;;;;;;4984255;28;20586;-45
2022/03/24 06:24:30;;;;;;;12.63;7.20;;;11.00;41.10;;;;;;5011028;28;20191;-47
2022/03/24 06:26:58;;;;;;;11.40;6.83;;;11.10;41.00;;;;;;5011818;28;20227;-46
2022/03/24 06:29:25;;;;;;;11.13;6.50;;;11.30;41.00;;;;;;5012191;28;20202;-47
2022/03/24 06:31:53;;;;;;;13.60;7.47;;;11.50;40.80;;;;;;5011731;28;20206;-51
2022/03/24 06:34:20;;;;;;;17.00;7.93;;;11.60;40.50;;;;;;5012240;28;20202;-44
2022/03/24 06:36:49;;;;;;;10.57;6.10;;;11.80;40.30;;;;;;5007062;28;20213;-51
2022/03/24 06:39:16;;;;;;;10.30;6.60;;;11.90;40.10;;;;;;5011982;28;20206;-47
2022/03/24 06:41:44;;;;;;;13.57;8.17;;;12.00;39.90;;;;;;5011748;28;20559;-50
2022/03/24 06:44:12;;;;;;;15.33;7.80;;;12.20;39.70;;;;;;5012193;28;20241;-46
2022/03/24 06:46:39;;;;;;;12.97;7.33;;;12.20;39.40;;;;;;5010594;28;20202;-47
2022/03/24 06:49:07;;;;;;;9.77;5.93;;;12.30;39.40;;;;;;5011818;28;20520;-52
2022/03/24 06:51:35;;;;;;;10.87;6.20;;;12.40;39.50;;;;;;5011090;28;20688;-47
2022/03/24 06:54:04;;;;;;;9.33;5.87;;;12.50;39.50;;;;;;5009929;28;20209;-48
2022/03/24 06:56:32;;;;;;;10.70;6.07;;;12.50;39.30;;;;;;5010797;28;20197;-45
2022/03/24 06:58:59;;;;;;;12.43;6.17;;;12.60;39.20;;;;;;5011696;28;20195;-48
2022/03/24 07:01:26;;;;;;;7.87;4.93;;;12.60;39.10;;;;;;5010715;28;20656;-48
2022/03/24 07:03:53;;;;;;;8.23;4.70;;;12.70;39.20;;;;;;4998181;28;20423;-47
2022/03/24 07:06:21;;;;;;;7.97;4.90;;;12.70;39.10;;;;;;5016440;28;20302;-52
2022/03/24 07:08:48;;;;;;;7.73;4.50;;;12.80;39.00;;;;;;5025532;28;20728;-46
2022/03/24 07:11:16;;;;;;;5.13;4.00;;;12.80;39.00;;;;;;5027400;28;20208;-46
2022/03/24 07:13:43;;;;;;;5.47;4.17;;;12.90;39.00;;;;;;5021671;28;20203;-50
2022/03/24 07:16:10;;;;;;;5.87;3.83;;;13.00;39.00;;;;;;5018001;28;20609;-50
2022/03/24 07:18:38;;;;;;;6.53;4.27;;;13.00;38.90;;;;;;5029658;28;20568;-46
2022/03/24 07:21:06;;;;;;;6.40;4.33;;;13.20;38.80;;;;;;5011889;28;20846;-48
2022/03/24 07:23:33;;;;;;;7.53;4.60;;;13.20;38.60;;;;;;5024117;28;20420;-52
2022/03/24 07:26:00;;;;;;;8.00;5.27;;;13.30;38.60;;;;;;5029609;28;20658;-46
2022/03/24 07:28:29;;;;;;;8.13;4.80;;;13.40;38.50;;;;;;5030629;28;20264;-45
2022/03/24 07:30:56;;;;;;;8.60;5.90;;;13.50;38.60;;;;;;5027935;28;20731;-56
2022/03/24 07:33:23;;;;;;;7.70;5.00;;;13.60;38.50;;;;;;5025111;28;20647;-49
2022/03/24 07:35:51;;;;;;;4.83;3.87;;;13.60;38.50;;;;;;5029428;28;20202;-47
2022/03/24 07:38:18;;;;;;;8.50;4.83;;;13.70;38.50;;;;;;5028876;28;20217;-48
2022/03/24 07:40:45;;;;;;;4.10;3.70;;;13.80;38.50;;;;;;5025436;28;20195;-49
2022/03/24 07:43:13;;;;;;;6.80;4.30;;;13.90;38.50;;;;;;5023575;28;20589;-50
2022/03/24 07:45:41;;;;;;;5.93;4.30;;;14.00;38.50;;;;;;5023747;28;20604;-46
2022/03/24 07:48:14;;;;;;;5.13;3.63;;;14.10;38.50;;;;;;5025541;28;20201;-46
2022/03/24 07:50:43;;;;;;;12.27;6.07;;;14.20;38.40;;;;;;5029894;28;20203;-48
2022/03/24 07:53:33;;;;;;;8.23;4.90;;;14.30;38.30;;;;;;5029036;28;20188;-48
2022/03/24 07:56:02;;;;;;;7.27;4.93;;;14.50;38.30;;;;;;5020576;28;20454;-44
2022/03/24 07:58:29;;;;;;;7.97;4.53;;;14.50;38.10;;;;;;5029846;28;20200;-49
2022/03/24 08:00:59;;;;;;;5.13;3.93;;;14.70;38.10;;;;;;5028387;28;20239;-44
2022/03/24 08:03:27;;;;;;;8.53;5.30;;;14.80;38.10;;;;;;5023634;28;20216;-50
2022/03/24 08:05:55;;;;;;;8.03;5.40;;;14.90;37.90;;;;;;5020166;28;20726;-45
2022/03/24 08:08:22;;;;;;;7.90;5.07;;;15.40;38.10;;;;;;5008648;28;20715;-44
2022/03/24 08:10:51;;;;;;;9.27;5.50;;;16.70;37.30;;;;;;5007217;28;20256;-50
2022/03/24 08:13:19;;;;;;;12.03;7.07;;;18.20;36.00;;;;;;5009940;28;20195;-52
2022/03/24 08:15:47;;;;;;;10.50;5.83;;;19.50;34.60;;;;;;4999556;28;20596;-45
2022/03/24 08:18:18;;;;;;;8.70;5.80;;;20.70;33.60;;;;;;5003249;28;20215;-47
2022/03/24 08:20:47;;;;;;;8.40;5.47;;;21.60;32.50;;;;;;5008670;28;20195;-46
2022/03/24 08:23:14;;;;;;;9.67;5.43;;;22.40;31.60;;;;;;5005045;28;20211;-47
2022/03/24 08:25:44;;;;;;;5.97;5.05;;;23.10;31.00;;;;;;5004479;28;20299;-46
2022/03/24 08:28:13;;;;;;;7.22;4.97;;;23.80;30.20;;;;;;5009608;28;20194;-49
2022/03/24 08:30:41;;;;;;;6.65;5.00;;;24.30;30.00;;;;;;5008584;28;20252;-45
2022/03/24 08:33:10;;;;;;;6.68;4.68;;;24.90;29.50;;;;;;5009258;28;20195;-50
2022/03/24 08:35:40;;;;;;;7.78;5.68;;;25.30;29.00;;;;;;5008282;28;20199;-46
2022/03/24 08:38:07;;;;;;;6.68;5.60;;;25.80;28.40;;;;;;5007892;28;20580;-47
2022/03/24 08:40:35;;;;;;;6.88;5.32;;;26.20;27.90;;;;;;5008921;28;20650;-48
2022/03/24 08:43:03;;;;;;;7.57;4.70;;;26.70;27.60;;;;;;4991656;28;20594;-48
2022/03/24 08:45:31;;;;;;;7.10;5.47;;;27.20;27.50;;;;;;5007908;28;20199;-48
2022/03/24 08:47:59;;;;;;;6.35;4.60;;;27.60;26.90;;;;;;5008312;28;20199;-48
2022/03/24 08:50:26;;;;;;;5.47;4.68;;;28.00;26.60;;;;;;4991592;28;20218;-48
2022/03/24 08:52:55;;;;;;;8.57;5.28;;;28.30;26.20;;;;;;5008140;28;20203;-46
2022/03/24 08:55:23;;;;;;;6.70;5.53;;;28.50;25.50;;;;;;5007396;28;20226;-49
2022/03/24 08:57:51;;;;;;;5.50;4.90;;;28.70;25.30;;;;;;5009052;28;20249;-55
2022/03/24 09:00:18;;;;;;;5.45;4.70;;;29.00;25.50;;;;;;5008721;28;20195;-44
2022/03/24 09:02:47;;;;;;;5.30;4.80;;;29.20;25.50;;;;;;5005624;28;20215;-49
2022/03/24 09:05:16;;;;;;;5.72;4.57;;;29.50;25.10;;;;;;4998493;28;20192;-48
2022/03/24 09:07:43;;;;;;;17.83;7.93;;;29.90;25.20;;;;;;5007889;28;20225;-46
2022/03/24 09:10:15;;;;;;;12.95;8.27;;;30.00;24.60;;;;;;5008539;28;20277;-46
2022/03/24 09:12:45;;;;;;;12.93;6.90;;;29.90;24.40;;;;;;5006124;28;20195;-45
2022/03/24 09:15:14;;;;;;;8.93;6.30;;;30.00;24.80;;;;;;5008923;28;20203;-47
2022/03/24 09:17:42;;;;;;;12.80;6.30;;;30.00;24.80;;;;;;5008190;28;20250;-45
2022/03/24 09:20:11;;;;;;;8.88;5.10;;;30.00;24.90;;;;;;4988781;28;20590;-44
2022/03/24 09:22:39;;;;;;;7.25;5.45;;;30.10;25.00;;;;;;5007140;28;20199;-46
2022/03/24 09:25:07;;;;;;;7.70;5.10;;;30.40;25.00;;;;;;4991369;28;20219;-46
2022/03/24 09:27:36;;;;;;;12.57;6.90;;;30.70;24.80;;;;;;5007961;28;20203;-47
2022/03/24 09:30:04;;;;;;;9.82;5.82;;;31.20;24.20;;;;;;5007226;28;20222;-44
2022/03/24 09:32:31;;;;;;;5.88;4.80;;;31.50;24.00;;;;;;5007951;28;20195;-45
2022/03/24 09:34:59;;;;;;;9.18;5.80;;;31.80;23.90;;;;;;5008236;28;20693;-45
2022/03/24 09:37:26;;;;;;;5.40;4.63;;;32.20;23.70;;;;;;5007851;28;20213;-47
2022/03/24 09:39:53;;;;;;;8.20;5.30;;;32.40;23.50;;;;;;5005622;28;20262;-49
2022/03/24 09:42:21;;;;;;;7.00;4.40;;;32.50;23.30;;;;;;5006690;28;20203;-48
2022/03/24 09:44:50;;;;;;;6.22;4.70;;;32.60;23.30;;;;;;5007075;28;20251;-48
2022/03/24 09:47:17;;;;;;;5.38;3.65;;;32.80;23.20;;;;;;5007858;28;20234;-50
2022/03/24 09:49:45;;;;;;;5.70;4.47;;;32.90;23.20;;;;;;4989876;28;20584;-48
2022/03/24 09:52:13;;;;;;;6.32;4.25;;;33.00;23.10;;;;;;5008794;28;20203;-51
2022/03/24 09:54:42;;;;;;;5.28;4.15;;;33.20;23.00;;;;;;5008639;28;20192;-50
2022/03/24 09:57:10;;;;;;;5.00;4.15;;;33.30;22.90;;;;;;5004347;28;20288;-50
2022/03/24 09:59:38;;;;;;;7.43;5.25;;;33.40;22.80;;;;;;5010498;28;20216;-51
2022/03/24 10:02:08;;;;;;;6.20;4.22;;;33.50;22.70;;;;;;5006203;28;20288;-49
2022/03/24 10:04:46;;;;;;;6.75;4.50;;;33.70;22.60;;;;;;5000101;28;20215;-47
2022/03/24 10:07:13;;;;;;;8.43;5.10;;;33.80;22.40;;;;;;5010016;28;20227;-45
2022/03/24 10:09:43;;;;;;;6.90;4.78;;;33.90;22.20;;;;;;5009076;28;20202;-52
2022/03/24 10:12:18;;;;;;;5.03;4.53;;;34.20;22.30;;;;;;4996691;28;20242;-51
2022/03/24 10:14:46;;;;;;;5.57;5.07;;;34.20;22.10;;;;;;5009007;28;20183;-51
2022/03/24 10:17:17;;;;;;;4.70;4.25;;;34.40;22.00;;;;;;5008254;28;20195;-52
2022/03/24 10:19:57;;;;;;;5.22;4.60;;;34.60;21.90;;;;;;5009324;28;20670;-52
2022/03/24 10:22:25;;;;;;;7.25;5.82;;;34.70;21.90;;;;;;4990409;28;20207;-50
2022/03/24 10:24:52;;;;;;;9.63;5.75;;;34.80;21.50;;;;;;5010039;28;20219;-46
2022/03/24 10:27:24;;;;;;;7.10;4.43;;;34.80;21.40;;;;;;5011826;28;20199;-51
2022/03/24 10:29:55;;;;;;;7.75;4.90;;;34.90;21.50;;;;;;5004310;28;20196;-50
2022/03/24 10:32:28;;;;;;;18.38;6.20;;;35.10;21.50;;;;;;5004435;28;20196;-49
2022/03/24 10:34:58;;;;;;;7.10;5.45;;;35.20;21.40;;;;;;5012646;28;20187;-51
2022/03/24 10:37:27;;;;;;;7.68;5.95;;;35.30;21.20;;;;;;5007631;28;20274;-51
2022/03/24 10:40:02;;;;;;;6.25;5.38;;;35.30;21.10;;;;;;5001857;28;20203;-53
2022/03/24 10:42:31;;;;;;;13.70;5.93;;;35.30;21.10;;;;;;5005315;28;20195;-50
2022/03/24 10:45:22;;;;;;;11.02;6.82;;;35.40;21.10;;;;;;5008877;28;20204;-50
2022/03/24 10:47:52;;;;;;;7.28;6.05;;;35.50;20.80;;;;;;5004655;28;20187;-51
2022/03/24 10:50:39;;;;;;;7.10;5.38;;;35.60;20.80;;;;;;5010968;28;20536;-52
2022/03/24 10:53:09;;;;;;;5.93;4.90;;;35.70;20.80;;;;;;5004622;28;20199;-50
2022/03/24 10:55:56;;;;;;;7.20;5.65;;;35.70;20.80;;;;;;5007056;28;20223;-54
2022/03/24 10:58:28;;;;;;;14.10;6.35;;;35.80;20.70;;;;;;5009622;28;20199;-54
2022/03/24 11:00:59;;;;;;;10.75;5.82;;;35.80;20.40;;;;;;5007783;28;20194;-49
2022/03/24 11:03:28;;;;;;;8.95;6.78;;;35.80;20.40;;;;;;5006942;28;20786;-50
2022/03/24 11:06:12;;;;;;;7.97;5.40;;;35.80;20.10;;;;;;5016153;28;20254;-49
2022/03/24 11:08:40;;;;;;;6.32;5.63;;;35.70;20.30;;;;;;5026317;28;20621;-55
2022/03/24 11:11:09;;;;;;;13.95;7.13;;;35.90;20.30;;;;;;5030156;28;20627;-49
2022/03/24 11:13:48;;;;;;;7.90;6.10;;;35.80;20.10;;;;;;5030237;28;20186;-48
2022/03/24 11:16:17;;;;;;;8.93;5.32;;;35.70;20.20;;;;;;5028370;28;20191;-48
2022/03/24 11:18:47;;;;;;;7.10;5.05;;;35.70;20.30;;;;;;5011526;28;20213;-50
2022/03/24 11:21:21;;;;;;;5.95;5.35;;;35.70;20.40;;;;;;5030733;28;20195;-50
2022/03/24 11:23:48;;;;;;;15.20;7.95;;;35.70;20.40;;;;;;5027902;28;20237;-49
2022/03/24 11:26:15;;;;;;;7.70;5.72;;;35.90;20.00;;;;;;5028385;28;20651;-49
2022/03/24 11:28:46;;;;;;;7.82;6.20;;;35.90;20.20;;;;;;5028084;28;20214;-51
2022/03/24 11:31:15;;;;;;;7.15;5.70;;;35.80;20.20;;;;;;5029326;28;20214;-47
2022/03/24 11:33:46;;;;;;;8.07;6.07;;;35.80;20.30;;;;;;5026972;28;20282;-55
2022/03/24 11:36:15;;;;;;;10.88;7.35;;;35.80;20.20;;;;;;5029416;28;20206;-50
2022/03/24 11:38:44;;;;;;;8.13;5.75;;;35.70;20.10;;;;;;5028016;28;20725;-48
2022/03/24 11:41:21;;;;;;;7.97;6.60;;;35.70;20.40;;;;;;5026040;28;20709;-53
2022/03/24 11:43:52;;;;;;;11.73;5.78;;;35.60;20.30;;;;;;5008397;28;20210;-51
2022/03/24 11:46:29;;;;;;;12.02;6.95;;;35.60;20.40;;;;;;5023299;28;20218;-48
2022/03/24 11:49:18;;;;;;;6.78;5.78;;;35.50;20.30;;;;;;5024110;28;20191;-51
2022/03/24 11:51:47;;;;;;;10.15;6.45;;;35.40;20.50;;;;;;5023055;28;20679;-49
2022/03/24 11:54:30;;;;;;;6.60;5.90;;;35.50;20.40;;;;;;5023283;28;20195;-51
2022/03/24 11:57:26;;;;;;;5.28;4.78;;;35.50;20.40;;;;;;5023441;28;20198;-50
2022/03/24 12:00:39;;;;;;;6.07;4.85;;;35.50;20.50;;;;;;5023402;28;20244;-52
2022/03/24 12:03:48;;;;;;;7.38;4.93;;;35.40;20.50;;;;;;5019846;28;20198;-44
2022/03/24 12:06:19;;;;;;;6.28;4.70;;;35.30;20.60;;;;;;5018518;28;20222;-46
2022/03/24 12:09:00;;;;;;;11.27;4.28;;;35.30;20.50;;;;;;5028415;28;20222;-45
2022/03/24 12:11:42;;;;;;;4.25;3.95;;;35.30;20.60;;;;;;5020702;28;20205;-45
2022/03/24 12:14:13;;;;;;;7.32;4.38;;;35.30;20.60;;;;;;5006946;28;20195;-46
2022/03/24 12:16:42;;;;;;;5.70;4.65;;;35.30;20.50;;;;;;5024807;28;20237;-50
2022/03/24 12:19:47;;;;;;;7.00;5.15;;;35.20;20.40;;;;;;5027364;28;20206;-44
2022/03/24 12:22:36;;;;;;;7.03;4.90;;;35.10;20.50;;;;;;5023256;28;20245;-45
2022/03/24 12:25:31;;;;;;;5.70;5.10;;;34.90;20.50;;;;;;5021371;28;20211;-48
2022/03/24 12:28:11;;;;;;;6.40;5.28;;;34.70;20.50;;;;;;5016383;28;20261;-50
2022/03/24 12:30:53;;;;;;;8.20;5.47;;;34.40;20.60;;;;;;5028892;28;20309;-48
2022/03/24 12:33:40;;;;;;;5.22;4.70;;;34.10;20.80;;;;;;5023613;28;20391;-46
2022/03/24 12:36:13;;;;;;;5.50;4.38;;;33.80;20.90;;;;;;5023071;28;20190;-50
2022/03/24 12:38:56;;;;;;;3.90;3.40;;;33.60;21.50;;;;;;5026131;28;20575;-45
2022/03/24 12:41:27;;;;;;;6.38;4.15;;;33.40;21.20;;;;;;5023404;28;20657;-45
2022/03/24 12:44:06;;;;;;;4.90;4.50;;;33.20;21.30;;;;;;5027882;28;20203;-48
2022/03/24 12:46:36;;;;;;;4.88;4.47;;;32.90;21.40;;;;;;5025838;28;20201;-47
2022/03/24 12:49:27;;;;;;;4.68;4.28;;;32.70;21.60;;;;;;5024364;28;20830;-49
2022/03/24 12:52:02;;;;;;;5.10;4.38;;;32.40;21.70;;;;;;5019199;28;20215;-49
2022/03/24 12:54:42;;;;;;;5.28;4.78;;;32.90;21.60;;;;;;5027664;28;20209;-45
2022/03/24 12:57:29;;;;;;;5.78;4.82;;;33.60;21.30;;;;;;5028863;28;20190;-46